sensor_id;sensor_type;location;lat;lon;timestamp;pressure;altitude;pressure_sealevel;temperature;humidity
37710;BME280;60223;34.854;-92.408;2023-03-16T00:01:50;100998.43;;;20.13;29.33
37710;BME280;60223;34.854;-92.408;2023-03-16T00:04:17;101001.61;;;19.89;29.12
37710;BME280;60223;34.854;-92.408;2023-03-16T00:06:44;100997.34;;;19.99;29.55
37710;BME280;60223;34.854;-92.408;2023-03-16T00:09:09;100995.17;;;19.94;29.45
37710;BME280;60223;34.854;-92.408;2023-03-16T00:11:33;100998.29;;;19.43;29.99
37710;BME280;60223;34.854;-92.408;2023-03-16T00:14:00;101002.85;;;19.85;29.37
37710;BME280;60223;34.854;-92.408;2023-03-16T00:16:25;101004.88;;;19.68;29.76
37710;BME280;60223;34.854;-92.408;2023-03-16T00:18:51;101002.93;;;19.86;29.47
37710;BME280;60223;34.854;-92.408;2023-03-16T00:21:17;100990.13;;;19.31;30.33
37710;BME280;60223;34.854;-92.408;2023-03-16T00:23:42;100980.01;;;19.50;29.80
37710;BME280;60223;34.854;-92.408;2023-03-16T00:26:08;100978.83;;;20.20;29.36
37710;BME280;60223;34.854;-92.408;2023-03-16T00:28:35;100974.42;;;20.33;29.10
37710;BME280;60223;34.854;-92.408;2023-03-16T00:31:00;100968.20;;;19.91;29.46
37710;BME280;60223;34.854;-92.408;2023-03-16T00:33:26;100968.53;;;19.69;30.29
37710;BME280;60223;34.854;-92.408;2023-03-16T00:35:51;100969.23;;;19.52;30.23
37710;BME280;60223;34.854;-92.408;2023-03-16T00:38:18;100968.92;;;19.50;30.16
37710;BME280;60223;34.854;-92.408;2023-03-16T00:40:43;100971.49;;;19.98;30.21
37710;BME280;60223;34.854;-92.408;2023-03-16T00:43:08;100971.43;;;19.31;30.29
37710;BME280;60223;34.854;-92.408;2023-03-16T00:45:35;100975.87;;;20.04;29.83
37710;BME280;60223;34.854;-92.408;2023-03-16T00:48:00;100973.70;;;19.92;30.10
37710;BME280;60223;34.854;-92.408;2023-03-16T00:50:25;100977.14;;;19.52;29.96
37710;BME280;60223;34.854;-92.408;2023-03-16T00:52:51;100981.78;;;19.83;29.86
37710;BME280;60223;34.854;-92.408;2023-03-16T00:55:15;100976.04;;;19.77;29.98
37710;BME280;60223;34.854;-92.408;2023-03-16T00:57:43;100971.02;;;19.44;30.56
37710;BME280;60223;34.854;-92.408;2023-03-16T01:00:09;100971.99;;;19.45;30.41
37710;BME280;60223;34.854;-92.408;2023-03-16T01:02:34;100976.67;;;20.25;29.89
37710;BME280;60223;34.854;-92.408;2023-03-16T01:04:59;100971.00;;;20.47;29.05
37710;BME280;60223;34.854;-92.408;2023-03-16T01:07:25;100972.41;;;19.83;29.10
37710;BME280;60223;34.854;-92.408;2023-03-16T01:09:52;100973.78;;;19.32;30.14
37710;BME280;60223;34.854;-92.408;2023-03-16T01:12:18;100978.54;;;19.25;30.00
37710;BME280;60223;34.854;-92.408;2023-03-16T01:14:43;100973.70;;;19.61;29.96
37710;BME280;60223;34.854;-92.408;2023-03-16T01:17:08;100972.15;;;19.56;30.14
37710;BME280;60223;34.854;-92.408;2023-03-16T01:19:35;100968.61;;;19.15;30.57
37710;BME280;60223;34.854;-92.408;2023-03-16T01:22:00;100967.58;;;19.63;30.60
37710;BME280;60223;34.854;-92.408;2023-03-16T01:24:25;100958.71;;;19.26;30.20
37710;BME280;60223;34.854;-92.408;2023-03-16T01:26:49;100949.87;;;19.00;30.70
37710;BME280;60223;34.854;-92.408;2023-03-16T01:29:17;100942.15;;;19.49;30.46
37710;BME280;60223;34.854;-92.408;2023-03-16T01:31:42;100937.13;;;19.30;30.51
37710;BME280;60223;34.854;-92.408;2023-03-16T01:34:09;100935.52;;;20.34;29.80
37710;BME280;60223;34.854;-92.408;2023-03-16T01:36:32;100931.86;;;20.29;29.93
37710;BME280;60223;34.854;-92.408;2023-03-16T01:39:00;100928.13;;;20.20;29.03
37710;BME280;60223;34.854;-92.408;2023-03-16T01:41:26;100924.51;;;20.17;29.18
37710;BME280;60223;34.854;-92.408;2023-03-16T01:43:52;100921.93;;;19.72;30.24
37710;BME280;60223;34.854;-92.408;2023-03-16T01:46:21;100923.56;;;19.48;30.20
37710;BME280;60223;34.854;-92.408;2023-03-16T01:48:47;100927.64;;;19.32;30.32
37710;BME280;60223;34.854;-92.408;2023-03-16T01:51:10;100927.94;;;19.32;30.04
37710;BME280;60223;34.854;-92.408;2023-03-16T01:53:34;100935.89;;;19.57;30.52
37710;BME280;60223;34.854;-92.408;2023-03-16T01:55:59;100944.38;;;19.39;30.31
37710;BME280;60223;34.854;-92.408;2023-03-16T01:58:26;100943.87;;;19.25;30.67
37710;BME280;60223;34.854;-92.408;2023-03-16T02:00:51;100946.55;;;19.23;30.51
37710;BME280;60223;34.854;-92.408;2023-03-16T02:03:18;100943.97;;;19.28;30.49
37710;BME280;60223;34.854;-92.408;2023-03-16T02:05:46;100947.18;;;19.40;30.57
37710;BME280;60223;34.854;-92.408;2023-03-16T02:08:09;100948.08;;;19.76;30.39
37710;BME280;60223;34.854;-92.408;2023-03-16T02:10:34;100944.44;;;20.36;29.50
37710;BME280;60223;34.854;-92.408;2023-03-16T02:12:58;100940.23;;;20.49;28.94
37710;BME280;60223;34.854;-92.408;2023-03-16T02:15:26;100939.97;;;20.09;29.59
37710;BME280;60223;34.854;-92.408;2023-03-16T02:17:52;100930.24;;;19.56;30.44
37710;BME280;60223;34.854;-92.408;2023-03-16T02:20:23;100928.25;;;19.33;30.56
37710;BME280;60223;34.854;-92.408;2023-03-16T02:22:46;100934.35;;;19.40;30.48
37710;BME280;60223;34.854;-92.408;2023-03-16T02:25:09;100936.62;;;19.62;30.39
37710;BME280;60223;34.854;-92.408;2023-03-16T02:27:39;100936.55;;;19.16;30.29
37710;BME280;60223;34.854;-92.408;2023-03-16T02:30:04;100936.96;;;19.74;30.85
37710;BME280;60223;34.854;-92.408;2023-03-16T02:32:26;100942.71;;;19.46;31.18
37710;BME280;60223;34.854;-92.408;2023-03-16T02:34:51;100939.59;;;19.54;30.53
37710;BME280;60223;34.854;-92.408;2023-03-16T02:37:18;100937.76;;;19.16;31.19
37710;BME280;60223;34.854;-92.408;2023-03-16T02:39:43;100936.56;;;19.48;31.48
37710;BME280;60223;34.854;-92.408;2023-03-16T02:42:09;100939.29;;;18.89;31.35
37710;BME280;60223;34.854;-92.408;2023-03-16T02:44:35;100935.09;;;19.08;31.42
37710;BME280;60223;34.854;-92.408;2023-03-16T02:47:03;100938.75;;;18.93;31.19
37710;BME280;60223;34.854;-92.408;2023-03-16T02:49:26;100935.29;;;20.09;30.56
37710;BME280;60223;34.854;-92.408;2023-03-16T02:51:52;100932.20;;;20.16;29.93
37710;BME280;60223;34.854;-92.408;2023-03-16T02:54:17;100929.25;;;20.11;29.60
37710;BME280;60223;34.854;-92.408;2023-03-16T02:56:42;100918.28;;;19.53;30.73
37710;BME280;60223;34.854;-92.408;2023-03-16T02:59:08;100914.83;;;19.17;30.88
37710;BME280;60223;34.854;-92.408;2023-03-16T03:01:34;100918.38;;;19.60;30.71
37710;BME280;60223;34.854;-92.408;2023-03-16T03:03:56;100915.59;;;19.69;30.26
37710;BME280;60223;34.854;-92.408;2023-03-16T03:06:25;100919.24;;;19.65;30.42
37710;BME280;60223;34.854;-92.408;2023-03-16T03:08:51;100923.78;;;19.53;30.93
37710;BME280;60223;34.854;-92.408;2023-03-16T03:11:17;100916.60;;;19.33;30.50
37710;BME280;60223;34.854;-92.408;2023-03-16T03:13:43;100907.60;;;19.18;31.08
37710;BME280;60223;34.854;-92.408;2023-03-16T03:16:08;100898.46;;;19.09;30.91
37710;BME280;60223;34.854;-92.408;2023-03-16T03:18:34;100890.96;;;19.08;30.91
37710;BME280;60223;34.854;-92.408;2023-03-16T03:21:00;100889.48;;;19.84;30.51
37710;BME280;60223;34.854;-92.408;2023-03-16T03:23:25;100886.70;;;20.29;29.66
37710;BME280;60223;34.854;-92.408;2023-03-16T03:25:49;100884.63;;;19.67;29.52
37710;BME280;60223;34.854;-92.408;2023-03-16T03:28:17;100889.96;;;18.79;30.81
37710;BME280;60223;34.854;-92.408;2023-03-16T03:30:43;100888.95;;;19.40;30.35
37710;BME280;60223;34.854;-92.408;2023-03-16T03:33:08;100889.87;;;19.36;30.31
37710;BME280;60223;34.854;-92.408;2023-03-16T03:35:34;100881.05;;;19.55;30.23
37710;BME280;60223;34.854;-92.408;2023-03-16T03:38:00;100863.10;;;19.44;30.69
37710;BME280;60223;34.854;-92.408;2023-03-16T03:40:26;100860.69;;;19.21;30.66
37710;BME280;60223;34.854;-92.408;2023-03-16T03:42:51;100859.01;;;19.41;30.01
37710;BME280;60223;34.854;-92.408;2023-03-16T03:45:17;100862.76;;;19.13;30.84
37710;BME280;60223;34.854;-92.408;2023-03-16T03:47:41;100857.84;;;19.19;30.97
37710;BME280;60223;34.854;-92.408;2023-03-16T03:50:10;100846.18;;;18.92;31.29
37710;BME280;60223;34.854;-92.408;2023-03-16T03:52:34;100844.71;;;18.89;31.29
37710;BME280;60223;34.854;-92.408;2023-03-16T03:55:00;100830.53;;;18.94;30.95
37710;BME280;60223;34.854;-92.408;2023-03-16T03:57:23;100828.96;;;19.25;31.12
37710;BME280;60223;34.854;-92.408;2023-03-16T03:59:51;100823.20;;;18.69;31.12
37710;BME280;60223;34.854;-92.408;2023-03-16T04:02:17;100824.04;;;18.91;31.67
37710;BME280;60223;34.854;-92.408;2023-03-16T04:04:43;100827.71;;;18.49;31.42
37710;BME280;60223;34.854;-92.408;2023-03-16T04:07:07;100835.86;;;18.61;31.26
37710;BME280;60223;34.854;-92.408;2023-03-16T04:09:34;100829.67;;;18.53;31.32
37710;BME280;60223;34.854;-92.408;2023-03-16T04:12:00;100834.18;;;18.95;31.35
37710;BME280;60223;34.854;-92.408;2023-03-16T04:14:23;100837.40;;;19.00;31.24
37710;BME280;60223;34.854;-92.408;2023-03-16T04:16:51;100842.35;;;19.09;31.12
37710;BME280;60223;34.854;-92.408;2023-03-16T04:19:17;100843.91;;;18.92;31.19
37710;BME280;60223;34.854;-92.408;2023-03-16T04:21:43;100847.56;;;18.91;31.18
37710;BME280;60223;34.854;-92.408;2023-03-16T04:24:09;100845.64;;;18.94;31.09
37710;BME280;60223;34.854;-92.408;2023-03-16T04:26:33;100833.24;;;19.25;30.90
37710;BME280;60223;34.854;-92.408;2023-03-16T04:29:00;100835.26;;;19.09;30.62
37710;BME280;60223;34.854;-92.408;2023-03-16T04:31:26;100841.51;;;19.46;30.42
37710;BME280;60223;34.854;-92.408;2023-03-16T04:33:51;100844.30;;;19.37;30.80
37710;BME280;60223;34.854;-92.408;2023-03-16T04:36:17;100842.18;;;19.62;30.39
37710;BME280;60223;34.854;-92.408;2023-03-16T04:38:41;100848.98;;;19.41;30.45
37710;BME280;60223;34.854;-92.408;2023-03-16T04:41:09;100847.74;;;19.51;30.08
37710;BME280;60223;34.854;-92.408;2023-03-16T04:43:34;100846.02;;;19.51;30.17
37710;BME280;60223;34.854;-92.408;2023-03-16T04:46:01;100839.28;;;19.48;30.13
37710;BME280;60223;34.854;-92.408;2023-03-16T04:48:26;100834.27;;;19.55;30.30
37710;BME280;60223;34.854;-92.408;2023-03-16T04:50:51;100823.09;;;19.59;30.06
37710;BME280;60223;34.854;-92.408;2023-03-16T04:53:17;100824.47;;;19.62;29.91
37710;BME280;60223;34.854;-92.408;2023-03-16T04:55:43;100825.06;;;19.45;30.12
37710;BME280;60223;34.854;-92.408;2023-03-16T05:19:59;100807.76;;;19.54;30.23
37710;BME280;60223;34.854;-92.408;2023-03-16T05:22:25;100809.02;;;19.45;30.31
37710;BME280;60223;34.854;-92.408;2023-03-16T05:24:52;100808.95;;;19.15;30.42
37710;BME280;60223;34.854;-92.408;2023-03-16T05:27:17;100807.37;;;18.83;30.44
37710;BME280;60223;34.854;-92.408;2023-03-16T05:29:43;100801.09;;;19.22;30.16
37710;BME280;60223;34.854;-92.408;2023-03-16T05:32:09;100800.97;;;19.31;30.40
37710;BME280;60223;34.854;-92.408;2023-03-16T05:34:35;100796.57;;;19.49;30.07
37710;BME280;60223;34.854;-92.408;2023-03-16T05:37:01;100795.34;;;19.45;30.11
37710;BME280;60223;34.854;-92.408;2023-03-16T05:39:25;100805.76;;;18.94;30.48
37710;BME280;60223;34.854;-92.408;2023-03-16T05:41:51;100808.92;;;19.18;30.25
37710;BME280;60223;34.854;-92.408;2023-03-16T05:44:18;100803.44;;;19.16;30.27
37710;BME280;60223;34.854;-92.408;2023-03-16T05:46:43;100809.01;;;19.21;30.48
37710;BME280;60223;34.854;-92.408;2023-03-16T05:49:09;100804.36;;;19.15;30.01
37710;BME280;60223;34.854;-92.408;2023-03-16T05:51:35;100800.09;;;18.80;30.17
37710;BME280;60223;34.854;-92.408;2023-03-16T05:54:01;100803.26;;;19.16;30.10
37710;BME280;60223;34.854;-92.408;2023-03-16T05:56:27;100799.96;;;19.04;30.41
37710;BME280;60223;34.854;-92.408;2023-03-16T05:58:53;100791.43;;;18.92;30.36
37710;BME280;60223;34.854;-92.408;2023-03-16T06:01:18;100787.89;;;19.16;30.20
37710;BME280;60223;34.854;-92.408;2023-03-16T06:03:44;100778.39;;;18.70;30.16
37710;BME280;60223;34.854;-92.408;2023-03-16T06:06:10;100775.80;;;19.20;29.88
37710;BME280;60223;34.854;-92.408;2023-03-16T06:08:35;100771.25;;;18.86;30.45
37710;BME280;60223;34.854;-92.408;2023-03-16T06:11:01;100772.58;;;19.08;30.06
37710;BME280;60223;34.854;-92.408;2023-03-16T06:13:25;100772.62;;;19.08;30.03
37710;BME280;60223;34.854;-92.408;2023-03-16T06:15:52;100766.15;;;19.20;30.24
37710;BME280;60223;34.854;-92.408;2023-03-16T06:18:18;100759.41;;;18.52;30.30
37710;BME280;60223;34.854;-92.408;2023-03-16T06:20:41;100759.92;;;19.06;30.26
37710;BME280;60223;34.854;-92.408;2023-03-16T06:23:09;100760.81;;;19.08;30.09
37710;BME280;60223;34.854;-92.408;2023-03-16T06:25:35;100758.15;;;19.10;30.13
37710;BME280;60223;34.854;-92.408;2023-03-16T06:28:01;100761.69;;;18.64;30.09
37710;BME280;60223;34.854;-92.408;2023-03-16T06:30:27;100759.03;;;19.06;29.79
37710;BME280;60223;34.854;-92.408;2023-03-16T06:32:51;100757.90;;;19.05;30.11
37710;BME280;60223;34.854;-92.408;2023-03-16T06:35:18;100748.49;;;18.72;30.07
37710;BME280;60223;34.854;-92.408;2023-03-16T06:37:44;100747.30;;;18.62;30.30
37710;BME280;60223;34.854;-92.408;2023-03-16T06:40:10;100742.09;;;18.55;30.29
37710;BME280;60223;34.854;-92.408;2023-03-16T06:42:35;100744.79;;;18.95;30.22
37710;BME280;60223;34.854;-92.408;2023-03-16T06:45:02;100737.09;;;19.13;30.14
37710;BME280;60223;34.854;-92.408;2023-03-16T06:47:25;100734.72;;;18.78;30.26
37710;BME280;60223;34.854;-92.408;2023-03-16T06:49:53;100730.02;;;19.01;30.13
37710;BME280;60223;34.854;-92.408;2023-03-16T06:52:18;100718.28;;;18.37;30.47
37710;BME280;60223;34.854;-92.408;2023-03-16T06:54:44;100710.65;;;18.60;29.96
37710;BME280;60223;34.854;-92.408;2023-03-16T06:57:10;100712.35;;;18.66;30.52
37710;BME280;60223;34.854;-92.408;2023-03-16T06:59:36;100711.66;;;18.72;30.26
37710;BME280;60223;34.854;-92.408;2023-03-16T07:02:02;100712.76;;;18.88;30.12
37710;BME280;60223;34.854;-92.408;2023-03-16T07:04:24;100713.20;;;18.76;30.19
37710;BME280;60223;34.854;-92.408;2023-03-16T07:06:53;100707.85;;;18.56;30.35
37710;BME280;60223;34.854;-92.408;2023-03-16T07:09:18;100705.31;;;18.55;30.16
37710;BME280;60223;34.854;-92.408;2023-03-16T07:11:44;100701.06;;;18.83;29.94
37710;BME280;60223;34.854;-92.408;2023-03-16T07:14:10;100705.00;;;18.74;30.04
37710;BME280;60223;34.854;-92.408;2023-03-16T07:16:35;100700.10;;;18.62;30.20
37710;BME280;60223;34.854;-92.408;2023-03-16T07:19:02;100696.43;;;18.87;30.23
37710;BME280;60223;34.854;-92.408;2023-03-16T07:21:27;100698.78;;;18.41;30.17
37710;BME280;60223;34.854;-92.408;2023-03-16T07:23:51;100695.37;;;18.30;30.25
37710;BME280;60223;34.854;-92.408;2023-03-16T07:26:19;100691.69;;;18.57;30.09
37710;BME280;60223;34.854;-92.408;2023-03-16T07:28:45;100688.81;;;18.51;30.11
37710;BME280;60223;34.854;-92.408;2023-03-16T07:31:10;100682.32;;;18.89;30.01
37710;BME280;60223;34.854;-92.408;2023-03-16T07:33:37;100681.59;;;18.75;29.99
37710;BME280;60223;34.854;-92.408;2023-03-16T07:36:01;100682.31;;;18.76;30.09
37710;BME280;60223;34.854;-92.408;2023-03-16T07:38:28;100670.82;;;18.76;29.92
37710;BME280;60223;34.854;-92.408;2023-03-16T07:40:54;100664.01;;;18.86;29.96
37710;BME280;60223;34.854;-92.408;2023-03-16T07:43:20;100656.41;;;18.93;29.55
37710;BME280;60223;34.854;-92.408;2023-03-16T07:45:46;100649.24;;;18.90;30.02
37710;BME280;60223;34.854;-92.408;2023-03-16T07:48:11;100643.28;;;18.37;30.15
37710;BME280;60223;34.854;-92.408;2023-03-16T07:50:36;100635.05;;;19.01;29.65
37710;BME280;60223;34.854;-92.408;2023-03-16T07:53:03;100622.68;;;18.75;30.05
37710;BME280;60223;34.854;-92.408;2023-03-16T07:55:27;100618.84;;;18.62;30.21
37710;BME280;60223;34.854;-92.408;2023-03-16T07:57:54;100622.30;;;18.75;29.80
37710;BME280;60223;34.854;-92.408;2023-03-16T08:00:20;100621.43;;;18.85;29.48
37710;BME280;60223;34.854;-92.408;2023-03-16T08:02:46;100617.25;;;18.88;29.75
37710;BME280;60223;34.854;-92.408;2023-03-16T08:05:11;100623.77;;;18.37;30.03
37710;BME280;60223;34.854;-92.408;2023-03-16T08:07:37;100617.17;;;18.22;29.82
37710;BME280;60223;34.854;-92.408;2023-03-16T08:10:03;100616.82;;;18.62;29.86
37710;BME280;60223;34.854;-92.408;2023-03-16T08:12:29;100611.60;;;18.79;29.65
37710;BME280;60223;34.854;-92.408;2023-03-16T08:14:54;100613.50;;;18.99;29.48
37710;BME280;60223;34.854;-92.408;2023-03-16T08:17:17;100608.81;;;18.33;29.40
37710;BME280;60223;34.854;-92.408;2023-03-16T08:19:46;100611.80;;;18.47;29.63
37710;BME280;60223;34.854;-92.408;2023-03-16T08:22:12;100616.96;;;18.63;29.74
37710;BME280;60223;34.854;-92.408;2023-03-16T08:24:37;100609.63;;;18.84;29.65
37710;BME280;60223;34.854;-92.408;2023-03-16T08:27:03;100609.90;;;18.49;29.80
37710;BME280;60223;34.854;-92.408;2023-03-16T08:29:29;100608.13;;;18.51;29.42
37710;BME280;60223;34.854;-92.408;2023-03-16T08:31:55;100612.12;;;18.69;29.26
37710;BME280;60223;34.854;-92.408;2023-03-16T08:34:19;100616.84;;;18.44;29.68
37710;BME280;60223;34.854;-92.408;2023-03-16T08:36:44;100626.06;;;18.63;29.64
37710;BME280;60223;34.854;-92.408;2023-03-16T08:39:12;100631.58;;;18.57;29.65
37710;BME280;60223;34.854;-92.408;2023-03-16T08:41:38;100636.63;;;18.58;29.65
37710;BME280;60223;34.854;-92.408;2023-03-16T08:44:04;100638.80;;;18.87;29.41
37710;BME280;60223;34.854;-92.408;2023-03-16T08:46:28;100629.74;;;18.75;29.44
37710;BME280;60223;34.854;-92.408;2023-03-16T08:48:55;100623.96;;;18.52;29.41
37710;BME280;60223;34.854;-92.408;2023-03-16T08:51:21;100617.04;;;18.53;29.55
37710;BME280;60223;34.854;-92.408;2023-03-16T08:53:46;100614.95;;;18.86;29.21
37710;BME280;60223;34.854;-92.408;2023-03-16T08:56:12;100613.90;;;18.37;29.61
37710;BME280;60223;34.854;-92.408;2023-03-16T08:58:38;100604.46;;;18.63;29.56
37710;BME280;60223;34.854;-92.408;2023-03-16T09:01:03;100598.60;;;18.82;29.44
37710;BME280;60223;34.854;-92.408;2023-03-16T09:03:30;100591.83;;;18.49;29.41
37710;BME280;60223;34.854;-92.408;2023-03-16T09:05:59;100589.89;;;18.65;29.26
37710;BME280;60223;34.854;-92.408;2023-03-16T09:08:20;100594.16;;;18.66;29.32
37710;BME280;60223;34.854;-92.408;2023-03-16T09:10:47;100594.91;;;18.38;29.77
37710;BME280;60223;34.854;-92.408;2023-03-16T09:13:12;100588.99;;;18.01;29.47
37710;BME280;60223;34.854;-92.408;2023-03-16T09:15:37;100583.98;;;18.76;29.20
37710;BME280;60223;34.854;-92.408;2023-03-16T09:18:06;100584.11;;;18.45;29.48
37710;BME280;60223;34.854;-92.408;2023-03-16T09:20:30;100584.82;;;18.39;29.45
37710;BME280;60223;34.854;-92.408;2023-03-16T09:22:57;100574.50;;;18.45;29.07
37710;BME280;60223;34.854;-92.408;2023-03-16T09:25:21;100565.64;;;18.63;29.29
37710;BME280;60223;34.854;-92.408;2023-03-16T09:27:47;100562.53;;;18.52;29.09
37710;BME280;60223;34.854;-92.408;2023-03-16T09:30:12;100562.76;;;18.47;29.45
37710;BME280;60223;34.854;-92.408;2023-03-16T09:32:37;100569.95;;;18.49;29.32
37710;BME280;60223;34.854;-92.408;2023-03-16T09:35:05;100570.35;;;18.13;29.41
37710;BME280;60223;34.854;-92.408;2023-03-16T09:37:30;100572.89;;;18.56;29.33
37710;BME280;60223;34.854;-92.408;2023-03-16T09:39:56;100565.50;;;18.45;29.25
37710;BME280;60223;34.854;-92.408;2023-03-16T09:42:26;100566.62;;;18.73;29.02
37710;BME280;60223;34.854;-92.408;2023-03-16T09:44:53;100572.53;;;18.68;29.25
37710;BME280;60223;34.854;-92.408;2023-03-16T09:47:14;100580.81;;;18.84;29.00
37710;BME280;60223;34.854;-92.408;2023-03-16T09:49:43;100578.64;;;18.68;29.15
37710;BME280;60223;34.854;-92.408;2023-03-16T09:52:16;100567.14;;;18.76;28.91
37710;BME280;60223;34.854;-92.408;2023-03-16T09:54:36;100566.37;;;18.62;29.01
37710;BME280;60223;34.854;-92.408;2023-03-16T09:56:56;100563.55;;;18.85;28.88
37710;BME280;60223;34.854;-92.408;2023-03-16T09:59:22;100559.63;;;18.60;29.23
37710;BME280;60223;34.854;-92.408;2023-03-16T10:01:55;100561.39;;;18.73;29.11
37710;BME280;60223;34.854;-92.408;2023-03-16T10:04:20;100559.89;;;18.76;28.94
37710;BME280;60223;34.854;-92.408;2023-03-16T10:06:42;100559.10;;;18.59;29.10
37710;BME280;60223;34.854;-92.408;2023-03-16T10:09:14;100562.27;;;18.40;29.11
37710;BME280;60223;34.854;-92.408;2023-03-16T10:11:33;100562.36;;;18.58;29.02
37710;BME280;60223;34.854;-92.408;2023-03-16T10:14:00;100562.48;;;18.61;29.09
37710;BME280;60223;34.854;-92.408;2023-03-16T10:16:24;100557.80;;;18.68;28.98
37710;BME280;60223;34.854;-92.408;2023-03-16T10:18:52;100556.52;;;18.62;29.02
37710;BME280;60223;34.854;-92.408;2023-03-16T10:21:15;100547.68;;;18.17;29.15
37710;BME280;60223;34.854;-92.408;2023-03-16T10:23:40;100550.75;;;17.95;29.62
37710;BME280;60223;34.854;-92.408;2023-03-16T10:26:11;100553.07;;;19.01;28.42
37710;BME280;60223;34.854;-92.408;2023-03-16T10:28:32;100548.48;;;17.86;29.50
37710;BME280;60223;34.854;-92.408;2023-03-16T10:30:58;100547.38;;;17.84;29.44
37710;BME280;60223;34.854;-92.408;2023-03-16T10:33:25;100550.99;;;18.30;29.56
37710;BME280;60223;34.854;-92.408;2023-03-16T10:35:51;100548.66;;;17.74;29.84
37710;BME280;60223;34.854;-92.408;2023-03-16T10:38:26;100554.98;;;17.84;29.98
37710;BME280;60223;34.854;-92.408;2023-03-16T10:40:40;100540.78;;;18.14;29.65
37710;BME280;60223;34.854;-92.408;2023-03-16T10:43:11;100561.74;;;18.62;28.95
37710;BME280;60223;34.854;-92.408;2023-03-16T10:45:33;100558.62;;;18.15;29.47
37710;BME280;60223;34.854;-92.408;2023-03-16T10:48:04;100568.78;;;18.18;29.62
37710;BME280;60223;34.854;-92.408;2023-03-16T10:50:27;100557.92;;;18.09;29.34
37710;BME280;60223;34.854;-92.408;2023-03-16T10:52:50;100557.71;;;18.33;29.43
37710;BME280;60223;34.854;-92.408;2023-03-16T10:55:21;100563.17;;;18.36;29.34
37710;BME280;60223;34.854;-92.408;2023-03-16T10:57:47;100554.71;;;18.94;28.76
37710;BME280;60223;34.854;-92.408;2023-03-16T11:00:13;100545.11;;;18.96;28.70
37710;BME280;60223;34.854;-92.408;2023-03-16T11:02:35;100544.67;;;18.68;28.96
37710;BME280;60223;34.854;-92.408;2023-03-16T11:04:58;100549.60;;;19.03;28.94
37710;BME280;60223;34.854;-92.408;2023-03-16T11:07:24;100546.38;;;18.57;28.75
37710;BME280;60223;34.854;-92.408;2023-03-16T11:09:50;100559.17;;;18.45;29.36
37710;BME280;60223;34.854;-92.408;2023-03-16T11:12:20;100546.29;;;20.16;28.15
37710;BME280;60223;34.854;-92.408;2023-03-16T11:14:45;100545.48;;;20.41;27.75
37710;BME280;60223;34.854;-92.408;2023-03-16T11:17:09;100550.17;;;20.46;27.46
37710;BME280;60223;34.854;-92.408;2023-03-16T11:19:34;100546.84;;;20.71;27.24
37710;BME280;60223;34.854;-92.408;2023-03-16T11:22:03;100552.57;;;20.30;27.44
37710;BME280;60223;34.854;-92.408;2023-03-16T11:24:29;100554.74;;;21.39;26.76
37710;BME280;60223;34.854;-92.408;2023-03-16T11:26:52;100548.60;;;21.64;26.70
37710;BME280;60223;34.854;-92.408;2023-03-16T11:29:23;100546.59;;;20.90;27.02
37710;BME280;60223;34.854;-92.408;2023-03-16T11:31:46;100542.01;;;20.61;27.38
37710;BME280;60223;34.854;-92.408;2023-03-16T11:34:12;100542.09;;;20.79;27.23
37710;BME280;60223;34.854;-92.408;2023-03-16T11:36:41;100552.84;;;20.97;27.34
37710;BME280;60223;34.854;-92.408;2023-03-16T11:39:08;100551.52;;;21.23;26.90
37710;BME280;60223;34.854;-92.408;2023-03-16T11:41:26;100547.55;;;21.90;26.35
37710;BME280;60223;34.854;-92.408;2023-03-16T11:43:54;100546.68;;;21.99;26.28
37710;BME280;60223;34.854;-92.408;2023-03-16T11:46:21;100538.32;;;21.76;26.51
37710;BME280;60223;34.854;-92.408;2023-03-16T11:48:43;100524.68;;;21.96;26.34
37710;BME280;60223;34.854;-92.408;2023-03-16T11:51:14;100524.65;;;21.75;26.56
37710;BME280;60223;34.854;-92.408;2023-03-16T11:53:41;100508.56;;;21.12;27.13
37710;BME280;60223;34.854;-92.408;2023-03-16T11:56:08;100516.53;;;21.46;26.86
37710;BME280;60223;34.854;-92.408;2023-03-16T11:58:36;100515.39;;;21.85;26.44
37710;BME280;60223;34.854;-92.408;2023-03-16T12:00:56;100522.96;;;22.29;26.12
37710;BME280;60223;34.854;-92.408;2023-03-16T12:05:47;100519.57;;;21.47;26.91
37710;BME280;60223;34.854;-92.408;2023-03-16T12:08:19;100522.14;;;21.59;26.52
37710;BME280;60223;34.854;-92.408;2023-03-16T12:10:38;100527.23;;;20.57;26.60
37710;BME280;60223;34.854;-92.408;2023-03-16T12:13:12;100517.80;;;20.07;26.96
37710;BME280;60223;34.854;-92.408;2023-03-16T12:15:31;100507.14;;;19.76;27.18
37710;BME280;60223;34.854;-92.408;2023-03-16T12:17:51;100510.30;;;19.60;28.05
37710;BME280;60223;34.854;-92.408;2023-03-16T12:20:20;100503.46;;;19.78;28.27
37710;BME280;60223;34.854;-92.408;2023-03-16T12:22:43;100511.84;;;20.49;27.19
37710;BME280;60223;34.854;-92.408;2023-03-16T12:25:13;100510.43;;;20.10;27.49
37710;BME280;60223;34.854;-92.408;2023-03-16T12:27:34;100501.60;;;20.19;27.64
37710;BME280;60223;34.854;-92.408;2023-03-16T12:30:07;100513.69;;;19.41;28.07
37710;BME280;60223;34.854;-92.408;2023-03-16T12:32:33;100521.77;;;19.44;28.22
37710;BME280;60223;34.854;-92.408;2023-03-16T12:34:51;100523.73;;;19.63;28.15
37710;BME280;60223;34.854;-92.408;2023-03-16T12:37:22;100519.41;;;19.63;28.15
37710;BME280;60223;34.854;-92.408;2023-03-16T12:39:55;100523.92;;;19.45;28.50
37710;BME280;60223;34.854;-92.408;2023-03-16T12:44:42;100529.91;;;19.99;28.37
37710;BME280;60223;34.854;-92.408;2023-03-16T12:47:02;100534.12;;;19.89;28.36
37710;BME280;60223;34.854;-92.408;2023-03-16T12:49:24;100516.00;;;19.68;28.46